sensor_id;sensor_type;location;lat;lon;timestamp;pressure;altitude;pressure_sealevel;temperature;humidity
64698;BME280;51124;53.394;-6.294;2023-05-25T00:01:06;102413.15;;;26.51;8.89
64698;BME280;51124;53.394;-6.294;2023-05-25T00:03:40;102408.68;;;26.89;8.98
64698;BME280;51124;53.394;-6.294;2023-05-25T00:06:18;102408.18;;;22.87;9.00
64698;BME280;51124;53.394;-6.294;2023-05-25T00:08:45;102404.32;;;23.10;8.41
64698;BME280;51124;53.394;-6.294;2023-05-25T00:11:12;102399.63;;;23.68;8.03
64698;BME280;51124;53.394;-6.294;2023-05-25T00:13:40;102396.67;;;23.51;7.94
64698;BME280;51124;53.394;-6.294;2023-05-25T00:16:07;102392.86;;;23.88;7.75
64698;BME280;51124;53.394;-6.294;2023-05-25T00:18:34;102392.44;;;24.19;7.62
64698;BME280;51124;53.394;-6.294;2023-05-25T00:21:02;102389.40;;;23.82;7.66
64698;BME280;51124;53.394;-6.294;2023-05-25T00:23:29;102385.91;;;23.92;7.64
64698;BME280;51124;53.394;-6.294;2023-05-25T00:25:56;102385.10;;;23.41;7.66
64698;BME280;51124;53.394;-6.294;2023-05-25T00:28:24;102385.91;;;24.23;7.51
64698;BME280;51124;53.394;-6.294;2023-05-25T00:30:51;102389.95;;;23.76;7.60
64698;BME280;51124;53.394;-6.294;2023-05-25T00:33:18;102391.47;;;24.20;7.51
64698;BME280;51124;53.394;-6.294;2023-05-25T00:35:46;102398.08;;;23.86;7.52
64698;BME280;51124;53.394;-6.294;2023-05-25T00:38:15;102394.21;;;23.92;7.48
64698;BME280;51124;53.394;-6.294;2023-05-25T00:40:43;102391.36;;;24.42;7.49
64698;BME280;51124;53.394;-6.294;2023-05-25T00:43:11;102393.96;;;23.92;7.45
64698;BME280;51124;53.394;-6.294;2023-05-25T00:45:39;102396.25;;;24.20;7.53
64698;BME280;51124;53.394;-6.294;2023-05-25T00:48:06;102397.84;;;24.43;7.42
64698;BME280;51124;53.394;-6.294;2023-05-25T00:50:39;102404.61;;;23.82;7.62
64698;BME280;51124;53.394;-6.294;2023-05-25T00:53:07;102406.52;;;24.04;7.56
64698;BME280;51124;53.394;-6.294;2023-05-25T00:55:38;102402.95;;;24.04;7.54
64698;BME280;51124;53.394;-6.294;2023-05-25T00:58:07;102406.70;;;24.79;7.51
64698;BME280;51124;53.394;-6.294;2023-05-25T01:00:36;102408.53;;;23.71;7.53
64698;BME280;51124;53.394;-6.294;2023-05-25T01:03:07;102406.23;;;23.67;7.54
64698;BME280;51124;53.394;-6.294;2023-05-25T01:05:37;102410.07;;;24.70;7.54
64698;BME280;51124;53.394;-6.294;2023-05-25T01:08:07;102406.80;;;23.42;7.65
64698;BME280;51124;53.394;-6.294;2023-05-25T01:10:36;102406.83;;;24.11;7.48
64698;BME280;51124;53.394;-6.294;2023-05-25T01:13:06;102405.86;;;24.28;7.59
64698;BME280;51124;53.394;-6.294;2023-05-25T01:15:36;102411.99;;;27.65;7.89
64698;BME280;51124;53.394;-6.294;2023-05-25T01:18:04;102410.18;;;26.85;8.58
64698;BME280;51124;53.394;-6.294;2023-05-25T01:20:31;102412.10;;;26.77;8.86
64698;BME280;51124;53.394;-6.294;2023-05-25T01:23:01;102412.11;;;25.95;9.21
64698;BME280;51124;53.394;-6.294;2023-05-25T01:25:39;102413.13;;;22.09;8.82
64698;BME280;51124;53.394;-6.294;2023-05-25T01:28:03;102409.63;;;23.42;8.42
64698;BME280;51124;53.394;-6.294;2023-05-25T01:30:33;102408.09;;;23.95;8.03
64698;BME280;51124;53.394;-6.294;2023-05-25T01:33:02;102407.59;;;23.71;7.94
64698;BME280;51124;53.394;-6.294;2023-05-25T01:35:30;102412.90;;;23.56;7.77
64698;BME280;51124;53.394;-6.294;2023-05-25T01:37:59;102412.85;;;24.00;7.66
64698;BME280;51124;53.394;-6.294;2023-05-25T01:40:27;102413.30;;;23.15;7.69
64698;BME280;51124;53.394;-6.294;2023-05-25T01:42:55;102416.33;;;23.82;7.60
64698;BME280;51124;53.394;-6.294;2023-05-25T01:45:22;102419.74;;;25.93;7.70
64698;BME280;51124;53.394;-6.294;2023-05-25T01:47:56;102416.15;;;25.36;8.06
64698;BME280;51124;53.394;-6.294;2023-05-25T01:50:23;102417.67;;;24.05;8.47
64698;BME280;51124;53.394;-6.294;2023-05-25T01:52:58;102417.15;;;24.40;8.27
64698;BME280;51124;53.394;-6.294;2023-05-25T01:55:19;102420.40;;;26.89;8.44
64698;BME280;51124;53.394;-6.294;2023-05-25T01:57:51;102424.23;;;25.57;9.19
64698;BME280;51124;53.394;-6.294;2023-05-25T02:00:19;102426.37;;;25.96;9.29
64698;BME280;51124;53.394;-6.294;2023-05-25T02:02:48;102425.83;;;25.95;9.23
64698;BME280;51124;53.394;-6.294;2023-05-25T02:05:17;102430.87;;;25.83;9.32
64698;BME280;51124;53.394;-6.294;2023-05-25T02:07:45;102432.26;;;25.78;9.43
64698;BME280;51124;53.394;-6.294;2023-05-25T02:10:13;102434.05;;;26.08;9.45
64698;BME280;51124;53.394;-6.294;2023-05-25T02:12:41;102433.61;;;25.92;9.57
64698;BME280;51124;53.394;-6.294;2023-05-25T02:15:09;102432.94;;;26.20;9.49
64698;BME280;51124;53.394;-6.294;2023-05-25T02:17:37;102435.10;;;25.41;9.82
64698;BME280;51124;53.394;-6.294;2023-05-25T02:20:05;102434.54;;;25.32;9.93
64698;BME280;51124;53.394;-6.294;2023-05-25T02:22:33;102437.56;;;25.41;9.97
64698;BME280;51124;53.394;-6.294;2023-05-25T02:25:00;102440.49;;;24.53;9.89
64698;BME280;51124;53.394;-6.294;2023-05-25T02:27:28;102446.61;;;25.05;9.76
64698;BME280;51124;53.394;-6.294;2023-05-25T02:29:55;102449.48;;;25.03;9.96
64698;BME280;51124;53.394;-6.294;2023-05-25T02:32:23;102451.76;;;24.76;10.10
64698;BME280;51124;53.394;-6.294;2023-05-25T02:34:50;102445.69;;;24.72;10.14
64698;BME280;51124;53.394;-6.294;2023-05-25T02:37:17;102446.69;;;24.73;10.09
64698;BME280;51124;53.394;-6.294;2023-05-25T02:39:45;102445.39;;;25.03;10.11
64698;BME280;51124;53.394;-6.294;2023-05-25T02:42:13;102448.23;;;24.70;10.19
64698;BME280;51124;53.394;-6.294;2023-05-25T02:44:41;102457.83;;;23.46;10.32
64698;BME280;51124;53.394;-6.294;2023-05-25T02:47:08;102451.19;;;23.29;9.87
64698;BME280;51124;53.394;-6.294;2023-05-25T02:49:35;102446.55;;;21.84;9.51
64698;BME280;51124;53.394;-6.294;2023-05-25T02:52:02;102444.78;;;22.39;9.23
64698;BME280;51124;53.394;-6.294;2023-05-25T02:54:30;102444.90;;;22.13;8.99
64698;BME280;51124;53.394;-6.294;2023-05-25T02:56:57;102446.04;;;23.18;8.75
64698;BME280;51124;53.394;-6.294;2023-05-25T02:59:24;102444.63;;;21.36;9.00
64698;BME280;51124;53.394;-6.294;2023-05-25T03:01:51;102442.39;;;22.49;8.44
64698;BME280;51124;53.394;-6.294;2023-05-25T03:04:19;102445.35;;;22.25;8.32
64698;BME280;51124;53.394;-6.294;2023-05-25T03:06:46;102447.46;;;22.44;8.16
64698;BME280;51124;53.394;-6.294;2023-05-25T03:09:13;102454.74;;;22.76;8.09
64698;BME280;51124;53.394;-6.294;2023-05-25T03:11:41;102459.44;;;22.55;8.22
64698;BME280;51124;53.394;-6.294;2023-05-25T03:14:08;102462.11;;;23.46;8.07
64698;BME280;51124;53.394;-6.294;2023-05-25T03:16:36;102466.41;;;23.04;7.98
64698;BME280;51124;53.394;-6.294;2023-05-25T03:19:03;102464.13;;;22.58;8.10
64698;BME280;51124;53.394;-6.294;2023-05-25T03:21:31;102466.38;;;22.53;8.06
64698;BME280;51124;53.394;-6.294;2023-05-25T03:23:58;102469.22;;;22.67;7.97
64698;BME280;51124;53.394;-6.294;2023-05-25T03:26:25;102469.87;;;21.58;8.08
64698;BME280;51124;53.394;-6.294;2023-05-25T03:28:52;102473.72;;;22.52;7.88
64698;BME280;51124;53.394;-6.294;2023-05-25T03:31:20;102469.52;;;22.40;7.90
64698;BME280;51124;53.394;-6.294;2023-05-25T03:33:47;102469.49;;;22.15;8.02
64698;BME280;51124;53.394;-6.294;2023-05-25T03:36:15;102473.58;;;22.22;7.99
64698;BME280;51124;53.394;-6.294;2023-05-25T03:38:43;102476.38;;;22.46;7.99
64698;BME280;51124;53.394;-6.294;2023-05-25T03:41:11;102478.79;;;22.85;7.96
64698;BME280;51124;53.394;-6.294;2023-05-25T03:43:38;102480.83;;;22.19;7.90
64698;BME280;51124;53.394;-6.294;2023-05-25T03:46:05;102479.65;;;22.85;7.79
64698;BME280;51124;53.394;-6.294;2023-05-25T03:48:32;102486.80;;;22.45;8.05
64698;BME280;51124;53.394;-6.294;2023-05-25T03:51:00;102483.79;;;22.82;7.94
64698;BME280;51124;53.394;-6.294;2023-05-25T03:53:27;102478.49;;;22.05;8.00
64698;BME280;51124;53.394;-6.294;2023-05-25T03:55:54;102475.26;;;22.58;7.79
64698;BME280;51124;53.394;-6.294;2023-05-25T03:58:22;102476.25;;;22.90;7.89
64698;BME280;51124;53.394;-6.294;2023-05-25T04:00:49;102481.78;;;22.16;8.05
64698;BME280;51124;53.394;-6.294;2023-05-25T04:03:16;102481.50;;;21.99;8.04
64698;BME280;51124;53.394;-6.294;2023-05-25T04:05:44;102487.35;;;22.33;7.82
64698;BME280;51124;53.394;-6.294;2023-05-25T04:08:12;102480.86;;;23.00;7.52
64698;BME280;51124;53.394;-6.294;2023-05-25T04:10:39;102479.47;;;23.29;7.65
64698;BME280;51124;53.394;-6.294;2023-05-25T04:13:06;102488.30;;;22.43;7.91
64698;BME280;51124;53.394;-6.294;2023-05-25T04:15:34;102488.67;;;21.95;8.02
64698;BME280;51124;53.394;-6.294;2023-05-25T04:18:01;102489.54;;;22.91;7.77
64698;BME280;51124;53.394;-6.294;2023-05-25T04:20:28;102488.24;;;23.10;7.82
64698;BME280;51124;53.394;-6.294;2023-05-25T04:22:56;102489.53;;;22.33;7.87
64698;BME280;51124;53.394;-6.294;2023-05-25T04:25:23;102488.18;;;21.11;8.16
64698;BME280;51124;53.394;-6.294;2023-05-25T04:27:51;102491.81;;;23.15;7.78
64698;BME280;51124;53.394;-6.294;2023-05-25T04:30:18;102493.45;;;22.02;7.90
64698;BME280;51124;53.394;-6.294;2023-05-25T04:32:45;102490.95;;;23.17;7.62
64698;BME280;51124;53.394;-6.294;2023-05-25T04:35:13;102496.23;;;22.09;7.78
64698;BME280;51124;53.394;-6.294;2023-05-25T04:37:40;102498.64;;;22.18;7.74
64698;BME280;51124;53.394;-6.294;2023-05-25T04:40:09;102498.41;;;21.50;7.86
64698;BME280;51124;53.394;-6.294;2023-05-25T04:42:36;102500.39;;;21.71;7.69
64698;BME280;51124;53.394;-6.294;2023-05-25T04:45:04;102505.68;;;22.23;7.72
64698;BME280;51124;53.394;-6.294;2023-05-25T04:47:31;102498.00;;;22.91;7.49
64698;BME280;51124;53.394;-6.294;2023-05-25T04:49:59;102492.23;;;24.37;7.88
64698;BME280;51124;53.394;-6.294;2023-05-25T04:52:26;102496.43;;;24.24;8.23
64698;BME280;51124;53.394;-6.294;2023-05-25T04:54:53;102506.55;;;22.44;8.42
64698;BME280;51124;53.394;-6.294;2023-05-25T04:57:21;102504.69;;;22.63;8.19
64698;BME280;51124;53.394;-6.294;2023-05-25T04:59:48;102511.33;;;26.06;8.33
64698;BME280;51124;53.394;-6.294;2023-05-25T05:02:15;102513.99;;;25.15;8.94
64698;BME280;51124;53.394;-6.294;2023-05-25T05:04:43;102516.73;;;24.44;9.40
64698;BME280;51124;53.394;-6.294;2023-05-25T05:07:10;102511.11;;;24.79;9.23
64698;BME280;51124;53.394;-6.294;2023-05-25T05:09:38;102511.32;;;25.53;9.20
64698;BME280;51124;53.394;-6.294;2023-05-25T05:12:06;102520.47;;;24.27;9.65
64698;BME280;51124;53.394;-6.294;2023-05-25T05:14:34;102524.49;;;24.27;9.67
64698;BME280;51124;53.394;-6.294;2023-05-25T05:17:01;102525.49;;;24.73;9.52
64698;BME280;51124;53.394;-6.294;2023-05-25T05:19:29;102525.84;;;23.93;9.70
64698;BME280;51124;53.394;-6.294;2023-05-25T05:21:56;102532.47;;;24.04;9.81
64698;BME280;51124;53.394;-6.294;2023-05-25T05:24:24;102529.71;;;25.37;9.55
64698;BME280;51124;53.394;-6.294;2023-05-25T05:26:52;102529.23;;;24.81;9.68
64698;BME280;51124;53.394;-6.294;2023-05-25T05:29:19;102522.90;;;24.35;9.62
64698;BME280;51124;53.394;-6.294;2023-05-25T05:31:46;102527.10;;;24.86;9.67
64698;BME280;51124;53.394;-6.294;2023-05-25T05:34:14;102528.53;;;24.15;9.87
64698;BME280;51124;53.394;-6.294;2023-05-25T05:36:41;102529.53;;;23.53;9.86
64698;BME280;51124;53.394;-6.294;2023-05-25T05:39:09;102530.21;;;24.65;9.70
64698;BME280;51124;53.394;-6.294;2023-05-25T05:41:36;102533.15;;;24.85;9.66
64698;BME280;51124;53.394;-6.294;2023-05-25T05:44:04;102535.72;;;23.86;9.90
64698;BME280;51124;53.394;-6.294;2023-05-25T05:46:31;102535.13;;;24.28;9.77
64698;BME280;51124;53.394;-6.294;2023-05-25T05:48:59;102528.27;;;24.55;9.43
64698;BME280;51124;53.394;-6.294;2023-05-25T05:51:26;102535.33;;;21.95;9.57
64698;BME280;51124;53.394;-6.294;2023-05-25T05:53:53;102542.26;;;21.50;9.16
64698;BME280;51124;53.394;-6.294;2023-05-25T05:56:20;102536.19;;;22.43;8.75
64698;BME280;51124;53.394;-6.294;2023-05-25T05:58:46;102532.01;;;22.42;8.69
64698;BME280;51124;53.394;-6.294;2023-05-25T06:01:09;102529.65;;;22.48;8.52
64698;BME280;51124;53.394;-6.294;2023-05-25T06:03:43;102530.77;;;21.85;8.41
64698;BME280;51124;53.394;-6.294;2023-05-25T06:06:17;102533.88;;;21.27;8.53
64698;BME280;51124;53.394;-6.294;2023-05-25T06:08:50;102531.88;;;23.13;7.88
64698;BME280;51124;53.394;-6.294;2023-05-25T06:11:23;102534.34;;;22.12;8.28
64698;BME280;51124;53.394;-6.294;2023-05-25T06:13:57;102536.63;;;21.39;8.47
64698;BME280;51124;53.394;-6.294;2023-05-25T06:16:30;102534.89;;;22.33;7.92
64698;BME280;51124;53.394;-6.294;2023-05-25T06:19:04;102532.80;;;21.95;8.11
64698;BME280;51124;53.394;-6.294;2023-05-25T06:21:37;102533.51;;;23.86;7.66
64698;BME280;51124;53.394;-6.294;2023-05-25T06:24:10;102538.60;;;22.34;7.82
64698;BME280;51124;53.394;-6.294;2023-05-25T06:26:44;102547.22;;;21.99;7.90
64698;BME280;51124;53.394;-6.294;2023-05-25T06:29:17;102545.83;;;22.48;7.68
64698;BME280;51124;53.394;-6.294;2023-05-25T06:31:51;102547.19;;;22.32;7.63
64698;BME280;51124;53.394;-6.294;2023-05-25T06:34:24;102547.83;;;23.13;7.48
64698;BME280;51124;53.394;-6.294;2023-05-25T06:36:57;102548.65;;;23.44;7.54
64698;BME280;51124;53.394;-6.294;2023-05-25T06:39:31;102554.97;;;22.67;7.72
64698;BME280;51124;53.394;-6.294;2023-05-25T06:42:04;102561.26;;;22.98;7.64
64698;BME280;51124;53.394;-6.294;2023-05-25T06:44:38;102565.94;;;22.08;7.61
64698;BME280;51124;53.394;-6.294;2023-05-25T06:47:11;102563.24;;;22.68;7.45
64698;BME280;51124;53.394;-6.294;2023-05-25T06:49:44;102564.42;;;21.53;7.82
64698;BME280;51124;53.394;-6.294;2023-05-25T06:52:18;102566.12;;;21.95;7.70
64698;BME280;51124;53.394;-6.294;2023-05-25T06:54:51;102567.30;;;23.23;7.41
64698;BME280;51124;53.394;-6.294;2023-05-25T06:57:25;102573.77;;;22.51;7.55
64698;BME280;51124;53.394;-6.294;2023-05-25T06:59:58;102571.14;;;22.82;7.54
64698;BME280;51124;53.394;-6.294;2023-05-25T07:02:32;102576.35;;;23.39;7.28
64698;BME280;51124;53.394;-6.294;2023-05-25T07:05:06;102574.79;;;21.58;8.24
64698;BME280;51124;53.394;-6.294;2023-05-25T07:07:40;102573.00;;;21.58;8.25
64698;BME280;51124;53.394;-6.294;2023-05-25T07:10:13;102572.89;;;22.26;7.76
64698;BME280;51124;53.394;-6.294;2023-05-25T07:12:46;102574.37;;;22.48;7.92
64698;BME280;51124;53.394;-6.294;2023-05-25T07:15:20;102583.72;;;22.80;7.82
64698;BME280;51124;53.394;-6.294;2023-05-25T07:17:53;102585.04;;;22.23;7.95
64698;BME280;51124;53.394;-6.294;2023-05-25T07:20:27;102583.34;;;23.01;7.72
64698;BME280;51124;53.394;-6.294;2023-05-25T07:23:00;102583.56;;;22.85;7.90
64698;BME280;51124;53.394;-6.294;2023-05-25T07:25:33;102590.12;;;22.56;8.04
64698;BME280;51124;53.394;-6.294;2023-05-25T07:28:07;102592.37;;;22.78;8.13
64698;BME280;51124;53.394;-6.294;2023-05-25T07:30:40;102589.51;;;22.10;8.12
64698;BME280;51124;53.394;-6.294;2023-05-25T07:33:14;102586.13;;;22.68;8.12
64698;BME280;51124;53.394;-6.294;2023-05-25T07:35:47;102583.48;;;23.13;7.95
64698;BME280;51124;53.394;-6.294;2023-05-25T07:38:21;102579.08;;;22.36;8.09
64698;BME280;51124;53.394;-6.294;2023-05-25T07:40:54;102573.98;;;22.79;8.02
64698;BME280;51124;53.394;-6.294;2023-05-25T07:43:27;102578.17;;;22.51;7.89
64698;BME280;51124;53.394;-6.294;2023-05-25T07:46:01;102574.97;;;23.56;7.80
64698;BME280;51124;53.394;-6.294;2023-05-25T07:48:34;102580.20;;;23.44;7.85
64698;BME280;51124;53.394;-6.294;2023-05-25T07:51:10;102583.28;;;22.55;7.95
64698;BME280;51124;53.394;-6.294;2023-05-25T07:53:33;102582.72;;;24.01;7.86
64698;BME280;51124;53.394;-6.294;2023-05-25T07:56:07;102582.16;;;24.77;8.30
64698;BME280;51124;53.394;-6.294;2023-05-25T07:58:40;102588.49;;;24.53;8.52
64698;BME280;51124;53.394;-6.294;2023-05-25T08:01:14;102596.22;;;22.67;8.34
64698;BME280;51124;53.394;-6.294;2023-05-25T08:03:47;102599.69;;;25.59;8.45
64698;BME280;51124;53.394;-6.294;2023-05-25T08:06:21;102599.16;;;25.52;8.85
64698;BME280;51124;53.394;-6.294;2023-05-25T08:08:55;102598.15;;;24.81;9.01
64698;BME280;51124;53.394;-6.294;2023-05-25T08:11:28;102596.26;;;25.08;9.10
64698;BME280;51124;53.394;-6.294;2023-05-25T08:14:02;102597.83;;;24.92;9.18
64698;BME280;51124;53.394;-6.294;2023-05-25T08:16:35;102596.18;;;24.33;9.19
64698;BME280;51124;53.394;-6.294;2023-05-25T08:19:09;102606.28;;;24.97;9.13
64698;BME280;51124;53.394;-6.294;2023-05-25T08:21:42;102607.93;;;25.08;9.09
64698;BME280;51124;53.394;-6.294;2023-05-25T08:24:16;102604.94;;;24.25;9.22
64698;BME280;51124;53.394;-6.294;2023-05-25T08:26:50;102606.98;;;23.91;10.24
64698;BME280;51124;53.394;-6.294;2023-05-25T08:29:23;102605.77;;;24.19;10.22
64698;BME280;51124;53.394;-6.294;2023-05-25T08:31:57;102602.81;;;24.28;10.07
64698;BME280;51124;53.394;-6.294;2023-05-25T08:34:30;102605.56;;;25.06;10.06
64698;BME280;51124;53.394;-6.294;2023-05-25T08:37:04;102605.64;;;24.38;10.14
64698;BME280;51124;53.394;-6.294;2023-05-25T08:39:38;102603.44;;;24.00;10.15
64698;BME280;51124;53.394;-6.294;2023-05-25T08:42:11;102608.71;;;25.28;9.85
64698;BME280;51124;53.394;-6.294;2023-05-25T08:44:45;102609.13;;;25.24;9.67
64698;BME280;51124;53.394;-6.294;2023-05-25T08:47:21;102608.42;;;24.49;9.79
64698;BME280;51124;53.394;-6.294;2023-05-25T08:49:44;102614.66;;;24.71;9.65
64698;BME280;51124;53.394;-6.294;2023-05-25T08:52:20;102611.47;;;24.70;9.73
64698;BME280;51124;53.394;-6.294;2023-05-25T08:54:44;102613.53;;;24.13;8.18
64698;BME280;51124;53.394;-6.294;2023-05-25T08:57:13;102606.04;;;23.94;7.34
64698;BME280;51124;53.394;-6.294;2023-05-25T08:59:43;102616.27;;;23.29;6.73
64698;BME280;51124;53.394;-6.294;2023-05-25T09:02:19;102614.20;;;23.87;6.32
64698;BME280;51124;53.394;-6.294;2023-05-25T09:04:43;102608.18;;;23.21;6.34
64698;BME280;51124;53.394;-6.294;2023-05-25T09:07:17;102607.84;;;23.82;6.28
64698;BME280;51124;53.394;-6.294;2023-05-25T09:09:51;102602.79;;;23.32;6.02
64698;BME280;51124;53.394;-6.294;2023-05-25T09:12:27;102600.78;;;22.77;5.76
64698;BME280;51124;53.394;-6.294;2023-05-25T09:14:52;102597.37;;;22.03;5.68
64698;BME280;51124;53.394;-6.294;2023-05-25T09:17:26;102598.13;;;23.43;5.39
64698;BME280;51124;53.394;-6.294;2023-05-25T09:19:59;102602.11;;;23.09;5.33
64698;BME280;51124;53.394;-6.294;2023-05-25T09:22:32;102598.09;;;22.74;5.42
64698;BME280;51124;53.394;-6.294;2023-05-25T09:25:07;102594.38;;;23.34;5.15
64698;BME280;51124;53.394;-6.294;2023-05-25T09:27:34;102595.21;;;22.23;6.00
64698;BME280;51124;53.394;-6.294;2023-05-25T09:29:57;102597.65;;;23.37;6.87
64698;BME280;51124;53.394;-6.294;2023-05-25T09:32:31;102592.97;;;24.29;7.18
64698;BME280;51124;53.394;-6.294;2023-05-25T09:35:06;102596.57;;;23.37;7.03
64698;BME280;51124;53.394;-6.294;2023-05-25T09:37:30;102595.88;;;23.75;6.84
64698;BME280;51124;53.394;-6.294;2023-05-25T09:40:04;102596.82;;;23.56;6.73
64698;BME280;51124;53.394;-6.294;2023-05-25T09:42:38;102595.62;;;23.67;6.20
64698;BME280;51124;53.394;-6.294;2023-05-25T09:45:11;102597.10;;;23.87;5.81
64698;BME280;51124;53.394;-6.294;2023-05-25T09:47:45;102593.73;;;24.01;5.84
64698;BME280;51124;53.394;-6.294;2023-05-25T09:50:19;102589.12;;;24.14;6.13
64698;BME280;51124;53.394;-6.294;2023-05-25T09:52:56;102590.42;;;24.34;5.87
64698;BME280;51124;53.394;-6.294;2023-05-25T09:55:20;102596.68;;;23.90;5.91
64698;BME280;51124;53.394;-6.294;2023-05-25T09:57:54;102595.68;;;24.36;5.70
64698;BME280;51124;53.394;-6.294;2023-05-25T10:00:28;102592.32;;;23.19;5.20
64698;BME280;51124;53.394;-6.294;2023-05-25T10:03:01;102591.39;;;23.58;4.40
64698;BME280;51124;53.394;-6.294;2023-05-25T10:05:34;102583.84;;;24.84;4.18
64698;BME280;51124;53.394;-6.294;2023-05-25T10:08:09;102588.41;;;23.73;4.30
64698;BME280;51124;53.394;-6.294;2023-05-25T10:10:34;102591.99;;;23.94;4.18
64698;BME280;51124;53.394;-6.294;2023-05-25T10:13:08;102591.10;;;23.80;4.19
64698;BME280;51124;53.394;-6.294;2023-05-25T10:15:44;102590.38;;;24.54;4.10
64698;BME280;51124;53.394;-6.294;2023-05-25T10:18:11;102592.29;;;23.57;4.07
64698;BME280;51124;53.394;-6.294;2023-05-25T10:20:35;102591.92;;;24.71;3.91
64698;BME280;51124;53.394;-6.294;2023-05-25T10:23:10;102591.88;;;24.36;3.75
64698;BME280;51124;53.394;-6.294;2023-05-25T10:25:39;102591.80;;;23.18;3.98
64698;BME280;51124;53.394;-6.294;2023-05-25T10:28:06;102597.98;;;23.15;3.94
64698;BME280;51124;53.394;-6.294;2023-05-25T10:30:30;102596.70;;;23.45;3.79
64698;BME280;51124;53.394;-6.294;2023-05-25T10:33:05;102594.19;;;24.17;3.85
64698;BME280;51124;53.394;-6.294;2023-05-25T10:35:38;102591.96;;;23.98;3.65
64698;BME280;51124;53.394;-6.294;2023-05-25T10:38:12;102592.08;;;24.40;3.73
64698;BME280;51124;53.394;-6.294;2023-05-25T10:40:46;102599.60;;;24.44;3.89
64698;BME280;51124;53.394;-6.294;2023-05-25T10:43:20;102599.32;;;23.28;4.07
64698;BME280;51124;53.394;-6.294;2023-05-25T10:45:54;102598.67;;;24.28;4.16
64698;BME280;51124;53.394;-6.294;2023-05-25T10:48:34;102602.68;;;22.81;4.36
64698;BME280;51124;53.394;-6.294;2023-05-25T10:50:57;102596.93;;;23.68;4.08
64698;BME280;51124;53.394;-6.294;2023-05-25T10:53:31;102597.54;;;23.26;4.12
64698;BME280;51124;53.394;-6.294;2023-05-25T10:56:06;102594.89;;;23.43;3.90
64698;BME280;51124;53.394;-6.294;2023-05-25T10:58:30;102590.92;;;24.71;3.76
64698;BME280;51124;53.394;-6.294;2023-05-25T11:01:06;102586.25;;;24.92;3.52
64698;BME280;51124;53.394;-6.294;2023-05-25T11:04:35;102593.42;;;26.93;3.67
64698;BME280;51124;53.394;-6.294;2023-05-25T11:05:58;102592.07;;;26.72;4.04
64698;BME280;51124;53.394;-6.294;2023-05-25T11:08:47;102593.13;;;26.37;4.14
64698;BME280;51124;53.394;-6.294;2023-05-25T11:11:00;102595.43;;;25.24;4.17
64698;BME280;51124;53.394;-6.294;2023-05-25T11:13:35;102592.35;;;27.05;4.26
64698;BME280;51124;53.394;-6.294;2023-05-25T11:16:18;102595.17;;;27.56;4.47
64698;BME280;51124;53.394;-6.294;2023-05-25T11:18:36;102588.91;;;27.86;4.58
64698;BME280;51124;53.394;-6.294;2023-05-25T11:21:10;102583.10;;;27.89;4.74
64698;BME280;51124;53.394;-6.294;2023-05-25T11:23:38;102578.70;;;28.73;4.68
64698;BME280;51124;53.394;-6.294;2023-05-25T11:26:04;102575.66;;;28.48;4.88
64698;BME280;51124;53.394;-6.294;2023-05-25T11:28:30;102580.58;;;26.48;5.40
64698;BME280;51124;53.394;-6.294;2023-05-25T11:30:53;102579.97;;;27.59;5.37
64698;BME280;51124;53.394;-6.294;2023-05-25T11:33:27;102581.67;;;26.82;5.35
64698;BME280;51124;53.394;-6.294;2023-05-25T11:36:01;102579.81;;;26.31;5.66
64698;BME280;51124;53.394;-6.294;2023-05-25T11:38:34;102573.35;;;28.07;5.19
64698;BME280;51124;53.394;-6.294;2023-05-25T11:41:02;102571.82;;;27.87;5.27
64698;BME280;51124;53.394;-6.294;2023-05-25T11:43:36;102581.88;;;27.76;5.24
64698;BME280;51124;53.394;-6.294;2023-05-25T11:46:10;102577.47;;;28.93;5.05
64698;BME280;51124;53.394;-6.294;2023-05-25T11:48:44;102572.54;;;27.32;4.98
64698;BME280;51124;53.394;-6.294;2023-05-25T11:51:20;102579.38;;;26.76;4.57
64698;BME280;51124;53.394;-6.294;2023-05-25T11:53:44;102571.72;;;26.96;4.31
64698;BME280;51124;53.394;-6.294;2023-05-25T11:56:18;102569.09;;;27.86;3.92
64698;BME280;51124;53.394;-6.294;2023-05-25T11:58:52;102572.89;;;26.50;4.33
64698;BME280;51124;53.394;-6.294;2023-05-25T12:01:26;102567.25;;;27.04;4.34
64698;BME280;51124;53.394;-6.294;2023-05-25T12:04:07;102571.94;;;26.55;4.09
64698;BME280;51124;53.394;-6.294;2023-05-25T12:06:31;102568.70;;;26.01;3.97
64698;BME280;51124;53.394;-6.294;2023-05-25T12:09:10;102567.92;;;26.48;3.37
64698;BME280;51124;53.394;-6.294;2023-05-25T12:11:35;102565.64;;;26.82;3.02
64698;BME280;51124;53.394;-6.294;2023-05-25T12:14:08;102564.99;;;26.12;3.13
64698;BME280;51124;53.394;-6.294;2023-05-25T12:16:42;102565.95;;;26.86;2.90
64698;BME280;51124;53.394;-6.294;2023-05-25T12:19:15;102558.46;;;27.89;2.46
64698;BME280;51124;53.394;-6.294;2023-05-25T12:21:49;102559.97;;;29.45;2.14
64698;BME280;51124;53.394;-6.294;2023-05-25T12:24:23;102557.07;;;29.77;1.83
64698;BME280;51124;53.394;-6.294;2023-05-25T12:26:56;102549.91;;;31.35;1.18
64698;BME280;51124;53.394;-6.294;2023-05-25T12:29:30;102555.99;;;34.64;0.55
64698;BME280;51124;53.394;-6.294;2023-05-25T12:32:04;102552.04;;;36.34;0.00
64698;BME280;51124;53.394;-6.294;2023-05-25T12:34:37;102542.15;;;36.83;0.00
64698;BME280;51124;53.394;-6.294;2023-05-25T12:37:18;102545.09;;;38.32;0.00
64698;BME280;51124;53.394;-6.294;2023-05-25T12:39:41;102541.17;;;37.79;0.00
64698;BME280;51124;53.394;-6.294;2023-05-25T12:42:15;102539.68;;;37.37;0.00
64698;BME280;51124;53.394;-6.294;2023-05-25T12:44:53;102543.56;;;39.38;0.00
64698;BME280;51124;53.394;-6.294;2023-05-25T12:47:18;102543.47;;;39.58;0.00
64698;BME280;51124;53.394;-6.294;2023-05-25T12:49:43;102541.15;;;36.59;0.00
64698;BME280;51124;53.394;-6.294;2023-05-25T12:52:34;102538.71;;;39.46;0.00
64698;BME280;51124;53.394;-6.294;2023-05-25T12:54:47;102535.24;;;41.14;0.00
64698;BME280;51124;53.394;-6.294;2023-05-25T12:57:21;102543.48;;;41.71;0.00
64698;BME280;51124;53.394;-6.294;2023-05-25T12:59:55;102535.46;;;42.42;0.00
64698;BME280;51124;53.394;-6.294;2023-05-25T13:02:29;102538.30;;;41.83;0.00
64698;BME280;51124;53.394;-6.294;2023-05-25T13:05:03;102532.95;;;41.34;0.00